sensor_id;sensor_type;location;lat;lon;timestamp;pressure;altitude;pressure_sealevel;temperature;humidity
84352;BME280;74537;43.526;1.518;2023-12-14T00:00:17;99668.75;;;12.25;68.36
84352;BME280;74537;43.526;1.518;2023-12-14T00:02:43;99672.75;;;12.29;67.55
84352;BME280;74537;43.526;1.518;2023-12-14T00:05:08;99661.63;;;12.32;67.23
84352;BME280;74537;43.526;1.518;2023-12-14T00:07:34;99672.19;;;12.33;67.90
84352;BME280;74537;43.526;1.518;2023-12-14T00:09:59;99675.03;;;12.40;67.44
84352;BME280;74537;43.526;1.518;2023-12-14T00:12:25;99674.25;;;12.31;67.85
84352;BME280;74537;43.526;1.518;2023-12-14T00:14:50;99675.28;;;12.30;67.82
84352;BME280;74537;43.526;1.518;2023-12-14T00:17:16;99675.78;;;12.26;67.39
84352;BME280;74537;43.526;1.518;2023-12-14T00:19:41;99684.59;;;12.20;67.97
84352;BME280;74537;43.526;1.518;2023-12-14T00:22:07;99696.03;;;12.22;67.55
84352;BME280;74537;43.526;1.518;2023-12-14T00:24:33;99705.44;;;12.26;67.36
84352;BME280;74537;43.526;1.518;2023-12-14T00:26:58;99710.34;;;12.22;67.82
84352;BME280;74537;43.526;1.518;2023-12-14T00:29:24;99711.91;;;12.17;67.42
84352;BME280;74537;43.526;1.518;2023-12-14T00:31:49;99707.72;;;12.14;68.06
84352;BME280;74537;43.526;1.518;2023-12-14T00:34:15;99708.53;;;12.15;68.21
84352;BME280;74537;43.526;1.518;2023-12-14T00:36:40;99710.09;;;12.09;67.86
84352;BME280;74537;43.526;1.518;2023-12-14T00:39:05;99715.97;;;12.13;68.03
84352;BME280;74537;43.526;1.518;2023-12-14T00:41:31;99728.84;;;12.02;68.31
84352;BME280;74537;43.526;1.518;2023-12-14T00:43:56;99729.00;;;12.01;68.21
84352;BME280;74537;43.526;1.518;2023-12-14T00:46:22;99717.56;;;11.99;67.57
84352;BME280;74537;43.526;1.518;2023-12-14T00:48:47;99728.50;;;11.97;67.47
84352;BME280;74537;43.526;1.518;2023-12-14T00:51:13;99740.31;;;11.88;67.77
84352;BME280;74537;43.526;1.518;2023-12-14T00:53:38;99743.69;;;11.90;68.26
84352;BME280;74537;43.526;1.518;2023-12-14T00:56:04;99748.41;;;11.88;67.96
84352;BME280;74537;43.526;1.518;2023-12-14T00:58:29;99746.34;;;11.98;68.10
84352;BME280;74537;43.526;1.518;2023-12-14T01:00:55;99749.00;;;12.07;67.68
84352;BME280;74537;43.526;1.518;2023-12-14T01:03:20;99767.00;;;12.14;67.61
84352;BME280;74537;43.526;1.518;2023-12-14T01:05:46;99760.41;;;12.17;68.11
84352;BME280;74537;43.526;1.518;2023-12-14T01:08:11;99770.34;;;12.16;67.43
84352;BME280;74537;43.526;1.518;2023-12-14T01:10:37;99781.63;;;12.12;67.25
84352;BME280;74537;43.526;1.518;2023-12-14T01:13:02;99787.72;;;12.14;66.90
84352;BME280;74537;43.526;1.518;2023-12-14T01:15:28;99791.78;;;12.10;66.86
84352;BME280;74537;43.526;1.518;2023-12-14T01:17:54;99791.41;;;12.13;66.41
84352;BME280;74537;43.526;1.518;2023-12-14T01:20:19;99801.84;;;12.16;66.80
84352;BME280;74537;43.526;1.518;2023-12-14T01:22:45;99808.94;;;12.17;66.00
84352;BME280;74537;43.526;1.518;2023-12-14T01:25:10;99806.56;;;12.14;66.20
84352;BME280;74537;43.526;1.518;2023-12-14T01:27:36;99807.94;;;12.10;66.35
84352;BME280;74537;43.526;1.518;2023-12-14T01:30:02;99831.00;;;12.04;66.79
84352;BME280;74537;43.526;1.518;2023-12-14T01:32:27;99818.25;;;11.98;67.03
84352;BME280;74537;43.526;1.518;2023-12-14T01:34:53;99822.63;;;11.99;66.35
84352;BME280;74537;43.526;1.518;2023-12-14T01:37:18;99822.47;;;11.92;67.03
84352;BME280;74537;43.526;1.518;2023-12-14T01:39:44;99840.19;;;11.87;66.88
84352;BME280;74537;43.526;1.518;2023-12-14T01:42:10;99846.06;;;11.74;67.05
84352;BME280;74537;43.526;1.518;2023-12-14T01:44:35;99842.88;;;11.71;66.98
84352;BME280;74537;43.526;1.518;2023-12-14T01:47:00;99847.41;;;11.70;66.68
84352;BME280;74537;43.526;1.518;2023-12-14T01:49:26;99848.59;;;11.59;66.22
84352;BME280;74537;43.526;1.518;2023-12-14T01:51:51;99853.13;;;11.59;67.08
84352;BME280;74537;43.526;1.518;2023-12-14T01:54:17;99873.66;;;11.52;66.92
84352;BME280;74537;43.526;1.518;2023-12-14T01:56:42;99875.34;;;11.53;66.44
84352;BME280;74537;43.526;1.518;2023-12-14T01:59:08;99886.13;;;11.53;66.74
84352;BME280;74537;43.526;1.518;2023-12-14T02:01:41;99892.50;;;11.44;66.89
84352;BME280;74537;43.526;1.518;2023-12-14T02:04:08;99896.72;;;11.46;66.65
84352;BME280;74537;43.526;1.518;2023-12-14T02:06:33;99891.03;;;11.49;66.33
84352;BME280;74537;43.526;1.518;2023-12-14T02:08:59;99897.56;;;11.47;66.76
84352;BME280;74537;43.526;1.518;2023-12-14T02:11:24;99901.59;;;11.43;66.44
84352;BME280;74537;43.526;1.518;2023-12-14T02:13:50;99907.66;;;11.37;65.99
84352;BME280;74537;43.526;1.518;2023-12-14T02:16:15;99911.69;;;11.33;66.39
84352;BME280;74537;43.526;1.518;2023-12-14T02:18:41;99919.41;;;11.36;66.11
84352;BME280;74537;43.526;1.518;2023-12-14T02:21:06;99922.13;;;11.36;66.37
84352;BME280;74537;43.526;1.518;2023-12-14T02:23:32;99927.19;;;11.47;66.58
84352;BME280;74537;43.526;1.518;2023-12-14T02:25:58;99934.59;;;11.53;65.80
84352;BME280;74537;43.526;1.518;2023-12-14T02:28:24;99938.44;;;11.58;66.75
84352;BME280;74537;43.526;1.518;2023-12-14T02:30:49;99939.97;;;11.61;66.28
84352;BME280;74537;43.526;1.518;2023-12-14T02:33:15;99948.06;;;11.61;66.34
84352;BME280;74537;43.526;1.518;2023-12-14T02:35:40;99955.97;;;11.62;66.37
84352;BME280;74537;43.526;1.518;2023-12-14T02:38:06;99955.44;;;11.67;66.37
84352;BME280;74537;43.526;1.518;2023-12-14T02:40:31;99962.69;;;11.67;66.38
84352;BME280;74537;43.526;1.518;2023-12-14T02:42:56;99967.06;;;11.68;65.80
84352;BME280;74537;43.526;1.518;2023-12-14T02:45:22;99972.59;;;11.66;65.51
84352;BME280;74537;43.526;1.518;2023-12-14T02:47:47;99975.66;;;11.63;65.42
84352;BME280;74537;43.526;1.518;2023-12-14T02:50:15;99990.50;;;11.75;64.86
84352;BME280;74537;43.526;1.518;2023-12-14T02:52:40;100005.44;;;11.70;64.65
84352;BME280;74537;43.526;1.518;2023-12-14T02:55:06;100010.53;;;11.81;64.99
84352;BME280;74537;43.526;1.518;2023-12-14T02:57:31;100002.63;;;11.79;64.00
84352;BME280;74537;43.526;1.518;2023-12-14T02:59:57;100006.50;;;11.85;64.54
84352;BME280;74537;43.526;1.518;2023-12-14T03:02:22;100017.75;;;11.80;63.67
84352;BME280;74537;43.526;1.518;2023-12-14T03:04:48;100020.28;;;11.82;64.07
84352;BME280;74537;43.526;1.518;2023-12-14T03:07:13;100013.91;;;11.83;63.73
84352;BME280;74537;43.526;1.518;2023-12-14T03:09:40;100004.28;;;11.80;63.33
84352;BME280;74537;43.526;1.518;2023-12-14T03:12:10;100019.78;;;11.78;63.26
84352;BME280;74537;43.526;1.518;2023-12-14T03:14:35;100018.97;;;11.78;63.54
84352;BME280;74537;43.526;1.518;2023-12-14T03:17:01;100031.56;;;11.77;63.47
84352;BME280;74537;43.526;1.518;2023-12-14T03:19:27;100017.72;;;11.64;63.91
84352;BME280;74537;43.526;1.518;2023-12-14T03:21:53;100032.38;;;11.70;63.35
84352;BME280;74537;43.526;1.518;2023-12-14T03:24:19;100034.91;;;11.71;63.21
84352;BME280;74537;43.526;1.518;2023-12-14T03:26:44;100050.22;;;11.71;63.76
84352;BME280;74537;43.526;1.518;2023-12-14T03:29:10;100050.53;;;11.68;63.51
84352;BME280;74537;43.526;1.518;2023-12-14T03:31:35;100059.13;;;11.63;64.04
84352;BME280;74537;43.526;1.518;2023-12-14T03:34:01;100062.81;;;11.62;63.16
84352;BME280;74537;43.526;1.518;2023-12-14T03:36:26;100066.19;;;11.56;63.19
84352;BME280;74537;43.526;1.518;2023-12-14T03:38:53;100074.56;;;11.53;63.90
84352;BME280;74537;43.526;1.518;2023-12-14T03:41:18;100080.66;;;11.55;63.73
84352;BME280;74537;43.526;1.518;2023-12-14T03:43:44;100089.72;;;11.54;63.44
84352;BME280;74537;43.526;1.518;2023-12-14T03:46:10;100093.41;;;11.53;63.73
84352;BME280;74537;43.526;1.518;2023-12-14T03:48:35;100090.56;;;11.54;63.13
84352;BME280;74537;43.526;1.518;2023-12-14T03:51:04;100093.56;;;11.51;63.56
84352;BME280;74537;43.526;1.518;2023-12-14T03:53:30;100101.50;;;11.53;63.63
84352;BME280;74537;43.526;1.518;2023-12-14T03:55:58;100104.19;;;11.53;63.94
84352;BME280;74537;43.526;1.518;2023-12-14T03:58:23;100111.97;;;11.56;63.86
84352;BME280;74537;43.526;1.518;2023-12-14T04:00:48;100111.78;;;11.57;63.88
84352;BME280;74537;43.526;1.518;2023-12-14T04:03:14;100116.34;;;11.57;64.13
84352;BME280;74537;43.526;1.518;2023-12-14T04:05:39;100118.38;;;11.63;64.08
84352;BME280;74537;43.526;1.518;2023-12-14T04:08:05;100116.00;;;11.68;64.16
84352;BME280;74537;43.526;1.518;2023-12-14T04:10:30;100118.03;;;11.66;63.60
84352;BME280;74537;43.526;1.518;2023-12-14T04:12:56;100120.06;;;11.64;63.68
84352;BME280;74537;43.526;1.518;2023-12-14T04:15:21;100131.16;;;11.69;64.32
84352;BME280;74537;43.526;1.518;2023-12-14T04:17:48;100138.41;;;11.69;64.04
84352;BME280;74537;43.526;1.518;2023-12-14T04:20:14;100142.44;;;11.64;63.97
84352;BME280;74537;43.526;1.518;2023-12-14T04:22:43;100140.22;;;11.60;63.95
84352;BME280;74537;43.526;1.518;2023-12-14T04:25:10;100144.28;;;11.64;64.47
84352;BME280;74537;43.526;1.518;2023-12-14T04:27:35;100150.34;;;11.66;64.27
84352;BME280;74537;43.526;1.518;2023-12-14T04:30:01;100151.19;;;11.67;63.87
84352;BME280;74537;43.526;1.518;2023-12-14T04:32:27;100162.94;;;11.65;64.47
84352;BME280;74537;43.526;1.518;2023-12-14T04:34:52;100165.00;;;11.63;63.78
84352;BME280;74537;43.526;1.518;2023-12-14T04:37:18;100171.38;;;11.62;63.54
84352;BME280;74537;43.526;1.518;2023-12-14T04:39:43;100173.91;;;11.64;63.68
84352;BME280;74537;43.526;1.518;2023-12-14T04:42:09;100184.50;;;11.57;63.96
84352;BME280;74537;43.526;1.518;2023-12-14T04:44:34;100181.81;;;11.57;64.24
84352;BME280;74537;43.526;1.518;2023-12-14T04:47:00;100196.75;;;11.60;64.06
84352;BME280;74537;43.526;1.518;2023-12-14T04:49:25;100189.03;;;11.57;64.20
84352;BME280;74537;43.526;1.518;2023-12-14T04:51:51;100196.94;;;11.58;64.27
84352;BME280;74537;43.526;1.518;2023-12-14T04:54:17;100203.13;;;11.51;63.68
84352;BME280;74537;43.526;1.518;2023-12-14T04:56:45;100210.03;;;11.53;64.12
84352;BME280;74537;43.526;1.518;2023-12-14T04:59:11;100209.19;;;11.53;64.03
84352;BME280;74537;43.526;1.518;2023-12-14T05:01:36;100217.28;;;11.53;63.59
84352;BME280;74537;43.526;1.518;2023-12-14T05:04:02;100224.84;;;11.49;63.70
84352;BME280;74537;43.526;1.518;2023-12-14T05:06:28;100228.53;;;11.48;64.09
84352;BME280;74537;43.526;1.518;2023-12-14T05:08:53;100228.00;;;11.45;63.40
84352;BME280;74537;43.526;1.518;2023-12-14T05:11:19;100237.25;;;11.42;63.52
84352;BME280;74537;43.526;1.518;2023-12-14T05:13:44;100243.63;;;11.41;64.01
84352;BME280;74537;43.526;1.518;2023-12-14T05:16:14;100243.94;;;11.38;63.99
84352;BME280;74537;43.526;1.518;2023-12-14T05:18:40;100250.03;;;11.40;63.76
84352;BME280;74537;43.526;1.518;2023-12-14T05:21:05;100254.22;;;11.43;63.58
84352;BME280;74537;43.526;1.518;2023-12-14T05:23:31;100253.56;;;11.41;62.92
84352;BME280;74537;43.526;1.518;2023-12-14T05:25:56;100255.56;;;11.39;63.30
84352;BME280;74537;43.526;1.518;2023-12-14T05:28:22;100261.25;;;11.36;63.13
84352;BME280;74537;43.526;1.518;2023-12-14T05:30:48;100275.03;;;11.33;63.30
84352;BME280;74537;43.526;1.518;2023-12-14T05:33:14;100272.66;;;11.30;63.24
84352;BME280;74537;43.526;1.518;2023-12-14T05:35:39;100280.41;;;11.33;63.55
84352;BME280;74537;43.526;1.518;2023-12-14T05:38:05;100288.50;;;11.33;63.23
84352;BME280;74537;43.526;1.518;2023-12-14T05:40:30;100294.88;;;11.32;63.32
84352;BME280;74537;43.526;1.518;2023-12-14T05:42:56;100300.19;;;11.23;62.68
84352;BME280;74537;43.526;1.518;2023-12-14T05:45:22;100305.88;;;11.20;63.26
84352;BME280;74537;43.526;1.518;2023-12-14T05:47:48;100320.25;;;11.29;63.20
84352;BME280;74537;43.526;1.518;2023-12-14T05:50:13;100320.72;;;11.24;62.82
84352;BME280;74537;43.526;1.518;2023-12-14T05:52:39;100326.13;;;11.24;62.91
84352;BME280;74537;43.526;1.518;2023-12-14T05:55:08;100338.72;;;11.24;62.76
84352;BME280;74537;43.526;1.518;2023-12-14T05:57:37;100337.56;;;11.27;62.90
84352;BME280;74537;43.526;1.518;2023-12-14T06:00:04;100342.75;;;11.20;62.84
84352;BME280;74537;43.526;1.518;2023-12-14T06:02:31;100349.91;;;11.11;63.03
84352;BME280;74537;43.526;1.518;2023-12-14T06:04:57;100362.03;;;11.15;63.55
84352;BME280;74537;43.526;1.518;2023-12-14T06:07:23;100368.53;;;11.13;62.88
84352;BME280;74537;43.526;1.518;2023-12-14T06:09:49;100363.16;;;11.13;63.04
84352;BME280;74537;43.526;1.518;2023-12-14T06:12:14;100366.41;;;11.16;63.20
84352;BME280;74537;43.526;1.518;2023-12-14T06:14:40;100373.94;;;11.13;62.51
84352;BME280;74537;43.526;1.518;2023-12-14T06:17:05;100368.88;;;11.10;63.18
84352;BME280;74537;43.526;1.518;2023-12-14T06:19:31;100380.09;;;11.05;63.47
84352;BME280;74537;43.526;1.518;2023-12-14T06:21:57;100385.31;;;11.07;63.17
84352;BME280;74537;43.526;1.518;2023-12-14T06:24:23;100391.88;;;11.04;63.32
84352;BME280;74537;43.526;1.518;2023-12-14T06:26:48;100382.25;;;11.02;63.77
84352;BME280;74537;43.526;1.518;2023-12-14T06:29:14;100391.78;;;10.96;62.97
84352;BME280;74537;43.526;1.518;2023-12-14T06:31:40;100397.25;;;11.04;63.41
84352;BME280;74537;43.526;1.518;2023-12-14T06:34:06;100407.69;;;11.07;62.89
84352;BME280;74537;43.526;1.518;2023-12-14T06:36:32;100418.16;;;11.10;63.23
84352;BME280;74537;43.526;1.518;2023-12-14T06:38:59;100425.28;;;11.02;63.17
84352;BME280;74537;43.526;1.518;2023-12-14T06:41:25;100421.84;;;11.09;62.60
84352;BME280;74537;43.526;1.518;2023-12-14T06:43:52;100426.66;;;11.06;63.05
84352;BME280;74537;43.526;1.518;2023-12-14T06:46:18;100428.06;;;11.10;62.70
84352;BME280;74537;43.526;1.518;2023-12-14T06:48:44;100439.28;;;11.05;62.95
84352;BME280;74537;43.526;1.518;2023-12-14T06:51:10;100427.69;;;11.05;63.48
84352;BME280;74537;43.526;1.518;2023-12-14T06:53:35;100430.53;;;11.03;63.56
84352;BME280;74537;43.526;1.518;2023-12-14T06:56:04;100447.09;;;10.99;62.85
84352;BME280;74537;43.526;1.518;2023-12-14T06:58:29;100453.03;;;11.02;62.90
84352;BME280;74537;43.526;1.518;2023-12-14T07:00:55;100451.63;;;10.98;63.05
84352;BME280;74537;43.526;1.518;2023-12-14T07:03:20;100468.47;;;11.00;63.24
84352;BME280;74537;43.526;1.518;2023-12-14T07:05:45;100471.56;;;11.05;63.41
84352;BME280;74537;43.526;1.518;2023-12-14T07:08:11;100473.44;;;11.05;63.13
84352;BME280;74537;43.526;1.518;2023-12-14T07:10:36;100477.25;;;11.02;63.11
84352;BME280;74537;43.526;1.518;2023-12-14T07:13:02;100482.50;;;11.04;62.91
84352;BME280;74537;43.526;1.518;2023-12-14T07:15:27;100493.25;;;11.04;63.31
84352;BME280;74537;43.526;1.518;2023-12-14T07:17:53;100498.91;;;11.01;63.22
84352;BME280;74537;43.526;1.518;2023-12-14T07:20:18;100500.91;;;10.99;63.40
84352;BME280;74537;43.526;1.518;2023-12-14T07:22:44;100500.53;;;10.94;63.08
84352;BME280;74537;43.526;1.518;2023-12-14T07:25:09;100501.38;;;10.94;63.38
84352;BME280;74537;43.526;1.518;2023-12-14T07:27:35;100510.03;;;10.88;62.61
84352;BME280;74537;43.526;1.518;2023-12-14T07:30:00;100506.38;;;10.89;63.02
84352;BME280;74537;43.526;1.518;2023-12-14T07:32:25;100516.56;;;10.85;63.02
84352;BME280;74537;43.526;1.518;2023-12-14T07:34:52;100522.19;;;10.92;62.72
84352;BME280;74537;43.526;1.518;2023-12-14T07:37:17;100514.94;;;10.75;63.25
84352;BME280;74537;43.526;1.518;2023-12-14T07:39:43;100524.78;;;10.84;63.08
84352;BME280;74537;43.526;1.518;2023-12-14T07:42:09;100535.25;;;10.87;62.95
84352;BME280;74537;43.526;1.518;2023-12-14T07:44:35;100535.09;;;10.89;63.17
84352;BME280;74537;43.526;1.518;2023-12-14T07:47:02;100544.28;;;10.96;62.50
84352;BME280;74537;43.526;1.518;2023-12-14T07:49:27;100547.38;;;10.91;62.71
84352;BME280;74537;43.526;1.518;2023-12-14T07:51:53;100553.75;;;10.90;62.57
84352;BME280;74537;43.526;1.518;2023-12-14T07:54:20;100566.91;;;10.93;62.55
84352;BME280;74537;43.526;1.518;2023-12-14T07:56:47;100570.72;;;11.00;62.37
84352;BME280;74537;43.526;1.518;2023-12-14T07:59:13;100571.84;;;10.98;62.19
84352;BME280;74537;43.526;1.518;2023-12-14T08:01:38;100578.78;;;11.00;62.55
84352;BME280;74537;43.526;1.518;2023-12-14T08:04:04;100577.34;;;11.06;62.10
84352;BME280;74537;43.526;1.518;2023-12-14T08:06:29;100596.44;;;11.12;62.64
84352;BME280;74537;43.526;1.518;2023-12-14T08:08:55;100597.44;;;11.11;62.06
84352;BME280;74537;43.526;1.518;2023-12-14T08:11:23;100605.06;;;11.16;62.71
84352;BME280;74537;43.526;1.518;2023-12-14T08:13:49;100607.00;;;11.23;62.72
84352;BME280;74537;43.526;1.518;2023-12-14T08:16:15;100602.00;;;11.29;62.27
84352;BME280;74537;43.526;1.518;2023-12-14T08:18:42;100612.47;;;11.32;62.39
84352;BME280;74537;43.526;1.518;2023-12-14T08:21:11;100603.41;;;11.33;62.32
84352;BME280;74537;43.526;1.518;2023-12-14T08:23:36;100617.72;;;11.33;62.46
84352;BME280;74537;43.526;1.518;2023-12-14T08:26:02;100613.56;;;11.39;61.88
84352;BME280;74537;43.526;1.518;2023-12-14T08:28:27;100617.56;;;11.35;61.56
84352;BME280;74537;43.526;1.518;2023-12-14T08:30:53;100627.31;;;11.36;61.81
84352;BME280;74537;43.526;1.518;2023-12-14T08:33:18;100628.78;;;11.30;61.70
84352;BME280;74537;43.526;1.518;2023-12-14T08:35:44;100629.34;;;11.34;61.77
84352;BME280;74537;43.526;1.518;2023-12-14T08:38:10;100636.41;;;11.35;61.83
84352;BME280;74537;43.526;1.518;2023-12-14T08:40:37;100646.88;;;11.38;61.78
84352;BME280;74537;43.526;1.518;2023-12-14T08:43:02;100648.72;;;11.37;61.71
84352;BME280;74537;43.526;1.518;2023-12-14T08:45:28;100653.97;;;11.39;61.21
84352;BME280;74537;43.526;1.518;2023-12-14T08:47:54;100674.59;;;11.48;61.46
84352;BME280;74537;43.526;1.518;2023-12-14T08:50:20;100674.28;;;11.51;60.67
84352;BME280;74537;43.526;1.518;2023-12-14T08:52:46;100680.00;;;11.48;60.85
84352;BME280;74537;43.526;1.518;2023-12-14T08:55:12;100680.53;;;11.51;61.16
84352;BME280;74537;43.526;1.518;2023-12-14T08:57:38;100686.75;;;11.52;60.65
84352;BME280;74537;43.526;1.518;2023-12-14T09:00:07;100693.00;;;11.52;61.58
84352;BME280;74537;43.526;1.518;2023-12-14T09:02:34;100692.38;;;11.58;60.93
84352;BME280;74537;43.526;1.518;2023-12-14T09:05:00;100695.25;;;11.57;61.30
84352;BME280;74537;43.526;1.518;2023-12-14T09:07:26;100692.94;;;11.62;61.06
84352;BME280;74537;43.526;1.518;2023-12-14T09:09:51;100699.72;;;11.66;60.14
84352;BME280;74537;43.526;1.518;2023-12-14T09:12:17;100711.34;;;11.67;60.86
84352;BME280;74537;43.526;1.518;2023-12-14T09:14:42;100709.22;;;11.70;60.71
84352;BME280;74537;43.526;1.518;2023-12-14T09:17:07;100709.91;;;11.72;60.28
84352;BME280;74537;43.526;1.518;2023-12-14T09:19:33;100718.66;;;11.84;60.46
84352;BME280;74537;43.526;1.518;2023-12-14T09:21:58;100719.50;;;11.84;60.36
84352;BME280;74537;43.526;1.518;2023-12-14T09:24:24;100724.59;;;11.87;59.91
84352;BME280;74537;43.526;1.518;2023-12-14T09:26:50;100728.81;;;11.90;60.09
84352;BME280;74537;43.526;1.518;2023-12-14T09:29:16;100735.91;;;11.91;59.55
84352;BME280;74537;43.526;1.518;2023-12-14T09:31:42;100733.94;;;11.93;59.55
84352;BME280;74537;43.526;1.518;2023-12-14T09:34:09;100731.00;;;12.04;59.76
84352;BME280;74537;43.526;1.518;2023-12-14T09:36:34;100735.63;;;12.12;59.44
84352;BME280;74537;43.526;1.518;2023-12-14T09:39:00;100750.09;;;12.11;59.24
84352;BME280;74537;43.526;1.518;2023-12-14T09:41:25;100743.81;;;12.20;58.58
84352;BME280;74537;43.526;1.518;2023-12-14T09:43:52;100753.84;;;12.27;59.10
84352;BME280;74537;43.526;1.518;2023-12-14T09:46:18;100753.69;;;12.29;58.33
84352;BME280;74537;43.526;1.518;2023-12-14T09:48:45;100756.09;;;12.32;58.76
84352;BME280;74537;43.526;1.518;2023-12-14T09:51:12;100759.47;;;12.34;57.97
84352;BME280;74537;43.526;1.518;2023-12-14T09:53:37;100767.97;;;12.39;58.64
84352;BME280;74537;43.526;1.518;2023-12-14T09:56:03;100771.94;;;12.35;57.81
84352;BME280;74537;43.526;1.518;2023-12-14T09:58:32;100794.06;;;12.38;58.80
84352;BME280;74537;43.526;1.518;2023-12-14T10:00:58;100793.84;;;12.32;57.26
84352;BME280;74537;43.526;1.518;2023-12-14T10:03:27;100796.97;;;12.27;57.80
84352;BME280;74537;43.526;1.518;2023-12-14T10:05:57;100801.81;;;12.24;57.27
84352;BME280;74537;43.526;1.518;2023-12-14T10:08:24;100814.69;;;12.30;58.40
84352;BME280;74537;43.526;1.518;2023-12-14T10:10:52;100813.69;;;12.31;57.80
84352;BME280;74537;43.526;1.518;2023-12-14T10:13:19;100811.69;;;12.33;58.09
84352;BME280;74537;43.526;1.518;2023-12-14T10:15:46;100823.03;;;12.36;58.14
84352;BME280;74537;43.526;1.518;2023-12-14T10:18:24;100823.59;;;12.40;57.64
84352;BME280;74537;43.526;1.518;2023-12-14T10:20:51;100814.25;;;12.52;57.68
84352;BME280;74537;43.526;1.518;2023-12-14T10:23:17;100815.34;;;12.59;57.47
84352;BME280;74537;43.526;1.518;2023-12-14T10:25:43;100828.91;;;12.67;57.50
84352;BME280;74537;43.526;1.518;2023-12-14T10:28:11;100829.06;;;12.66;57.58
84352;BME280;74537;43.526;1.518;2023-12-14T10:30:38;100825.59;;;12.73;57.03
84352;BME280;74537;43.526;1.518;2023-12-14T10:33:04;100828.91;;;12.67;57.16
84352;BME280;74537;43.526;1.518;2023-12-14T10:35:29;100830.16;;;12.55;57.59
84352;BME280;74537;43.526;1.518;2023-12-14T10:37:55;100838.81;;;12.49;57.10
84352;BME280;74537;43.526;1.518;2023-12-14T10:40:24;100837.84;;;12.50;56.72
84352;BME280;74537;43.526;1.518;2023-12-14T10:42:52;100844.13;;;12.41;57.01
84352;BME280;74537;43.526;1.518;2023-12-14T10:45:18;100838.91;;;12.39;57.26
84352;BME280;74537;43.526;1.518;2023-12-14T10:47:47;100843.88;;;12.34;57.49
84352;BME280;74537;43.526;1.518;2023-12-14T10:50:14;100844.88;;;12.33;57.19
84352;BME280;74537;43.526;1.518;2023-12-14T10:52:40;100850.44;;;12.32;57.56
84352;BME280;74537;43.526;1.518;2023-12-14T10:55:28;100854.81;;;12.33;57.22
84352;BME280;74537;43.526;1.518;2023-12-14T10:57:57;100847.19;;;12.28;56.94
84352;BME280;74537;43.526;1.518;2023-12-14T11:00:22;100853.44;;;12.29;56.78
84352;BME280;74537;43.526;1.518;2023-12-14T11:02:48;100848.75;;;12.31;56.95
84352;BME280;74537;43.526;1.518;2023-12-14T11:05:15;100854.25;;;12.39;57.50
84352;BME280;74537;43.526;1.518;2023-12-14T11:07:49;100848.25;;;12.45;57.59
84352;BME280;74537;43.526;1.518;2023-12-14T11:10:21;100852.94;;;12.43;56.67
84352;BME280;74537;43.526;1.518;2023-12-14T11:12:57;100849.63;;;12.49;57.02
84352;BME280;74537;43.526;1.518;2023-12-14T11:15:25;100854.72;;;12.52;56.57
84352;BME280;74537;43.526;1.518;2023-12-14T11:23:30;100866.06;;;12.73;55.60
84352;BME280;74537;43.526;1.518;2023-12-14T11:25:59;100866.91;;;12.74;55.43
84352;BME280;74537;43.526;1.518;2023-12-14T11:28:26;100860.28;;;12.68;55.67
84352;BME280;74537;43.526;1.518;2023-12-14T11:30:52;100866.31;;;12.62;55.65
84352;BME280;74537;43.526;1.518;2023-12-14T11:33:17;100872.09;;;12.67;54.93
84352;BME280;74537;43.526;1.518;2023-12-14T11:35:43;100869.31;;;12.77;54.80
84352;BME280;74537;43.526;1.518;2023-12-14T11:38:08;100870.22;;;12.86;55.40
84352;BME280;74537;43.526;1.518;2023-12-14T11:40:44;100871.00;;;12.96;54.76
84352;BME280;74537;43.526;1.518;2023-12-14T11:43:10;100868.19;;;13.15;54.05
84352;BME280;74537;43.526;1.518;2023-12-14T11:45:40;100868.66;;;13.28;53.96
84352;BME280;74537;43.526;1.518;2023-12-14T11:48:10;100870.72;;;13.34;54.69
84352;BME280;74537;43.526;1.518;2023-12-14T11:50:37;100875.63;;;13.39;54.00
84352;BME280;74537;43.526;1.518;2023-12-14T11:53:04;100874.41;;;13.33;54.35
84352;BME280;74537;43.526;1.518;2023-12-14T11:55:40;100879.97;;;13.32;54.37
84352;BME280;74537;43.526;1.518;2023-12-14T11:58:07;100863.75;;;13.32;54.05
84352;BME280;74537;43.526;1.518;2023-12-14T12:00:33;100868.00;;;13.34;53.54
84352;BME280;74537;43.526;1.518;2023-12-14T12:03:13;100866.88;;;13.37;52.99
84352;BME280;74537;43.526;1.518;2023-12-14T12:05:44;100869.38;;;13.38;53.18
84352;BME280;74537;43.526;1.518;2023-12-14T12:08:11;100877.41;;;13.48;52.55
84352;BME280;74537;43.526;1.518;2023-12-14T12:10:41;100877.72;;;13.45;52.01
84352;BME280;74537;43.526;1.518;2023-12-14T12:13:16;100864.75;;;13.48;52.19
84352;BME280;74537;43.526;1.518;2023-12-14T12:15:42;100872.69;;;13.50;51.85
84352;BME280;74537;43.526;1.518;2023-12-14T12:18:09;100872.38;;;13.53;50.68
84352;BME280;74537;43.526;1.518;2023-12-14T12:20:35;100863.59;;;13.51;51.40
84352;BME280;74537;43.526;1.518;2023-12-14T12:23:01;100861.59;;;13.53;50.69
84352;BME280;74537;43.526;1.518;2023-12-14T12:25:27;100867.59;;;13.47;50.20
84352;BME280;74537;43.526;1.518;2023-12-14T12:27:54;100862.38;;;13.45;50.53
84352;BME280;74537;43.526;1.518;2023-12-14T12:30:20;100870.09;;;13.40;50.83
84352;BME280;74537;43.526;1.518;2023-12-14T12:32:46;100865.69;;;13.39;51.08
84352;BME280;74537;43.526;1.518;2023-12-14T12:35:11;100863.69;;;13.41;50.60
84352;BME280;74537;43.526;1.518;2023-12-14T12:37:36;100859.28;;;13.40;50.96
84352;BME280;74537;43.526;1.518;2023-12-14T12:40:02;100865.00;;;13.37;50.75
84352;BME280;74537;43.526;1.518;2023-12-14T12:42:28;100859.28;;;13.40;50.71
84352;BME280;74537;43.526;1.518;2023-12-14T12:44:54;100849.38;;;13.49;50.93
84352;BME280;74537;43.526;1.518;2023-12-14T12:47:20;100840.50;;;13.56;51.02
84352;BME280;74537;43.526;1.518;2023-12-14T12:49:45;100842.44;;;13.72;51.60
84352;BME280;74537;43.526;1.518;2023-12-14T12:52:11;100851.81;;;13.86;50.99